Latest Weather Observations for Archerfield

IDQ60801

Issued at 8:02 am EST Friday 29 July 2016 (issued every 30 minutes, with the page automatically refreshed every 10 minutes)

About weather observations | Map of weather stations | Latest weather observations for QLD | Other Formats
Station Details ID: 040211 Name: ARCHERFIELD AIRPORT Lat: -27.57 Lon: 153.01 Height: 12.5 m
Data from the previous 72 hours. | See also: Recent months at Archerfield
Date/Time
EST
Temp
°C
App
Temp
°C
Dew
Point
°C
Rel
Hum
%
Delta-T
°C
Wind Press
QNH
hPa
Press
MSL
hPa
Rain since
9am
mm
Dir  Spd
km/h
Gust
km/h
Spd
kts
Gust
kts
29/08:00am 10.7 8.7 6.1 73 2.1 SSW 6 9 3 5 1024.0 1024.0 0.0
29/07:30am 9.9 7.6 5.9 76 1.8 S 7 9 4 5 1023.9 1023.9 0.0
29/07:00am 8.6 6.2 5.2 79 1.5 S 7 9 4 5 1023.7 1023.7 0.0
29/06:30am 7.3 4.8 5.0 85 1.0 S 7 7 4 4 1023.7 1023.7 0.0
29/06:00am 6.5 4.1 4.3 86 0.9 S 6 9 3 5 1023.4 1023.4 0.0
29/05:30am 7.4 4.7 5.4 87 0.9 SSW 9 11 5 6 1022.9 1022.9 0.0
29/05:00am 6.9 4.0 4.9 87 0.9 SSW 9 11 5 6 1022.7 1022.7 0.0
29/04:30am 7.0 4.5 4.5 84 1.1 S 7 9 4 5 1022.7 1022.7 0.0
29/04:00am 8.4 5.5 6.4 87 0.9 SSE 11 13 6 7 1022.4 1022.4 0.0
29/03:30am 8.8 6.4 6.8 87 0.9 S 9 11 5 6 1022.5 1022.5 0.0
29/03:00am 9.0 6.5 6.4 84 1.2 S 9 11 5 6 1022.5 1022.5 0.0
29/02:30am 8.6 6.1 6.7 88 0.9 S 9 11 5 6 1022.7 1022.7 0.0
29/02:00am 9.2 7.3 7.5 89 0.8 SSW 7 9 4 5 1022.8 1022.8 0.0
29/01:30am 9.1 6.7 6.9 86 1.0 S 9 11 5 6 1022.7 1022.7 0.0
29/01:00am 9.6 7.4 7.9 89 0.8 SSW 9 11 5 6 1022.7 1022.7 0.0
29/12:30am 9.0 6.7 7.6 91 0.7 SW 9 46 5 25 1022.6 1022.6 0.0
29/12:00am 9.1 8.1 7.2 88 0.9 S 2 7 1 4 1022.7 1022.7 0.0
 
Date/Time
EST
Temp
°C
App
Temp
°C
Dew
Point
°C
Rel
Hum
%
Delta-T
°C
Wind Press
QNH
hPa
Press
MSL
hPa
Rain since
9am
mm
Dir  Spd
km/h
Gust
km/h
Spd
kts
Gust
kts
28/11:30pm 9.9 8.2 7.7 86 1.1 S 6 9 3 5 1022.8 1022.8 0.0
28/11:00pm 9.3 8.6 6.9 85 1.1 CALM 0 0 0 0 1023.0 1023.0 0.0
28/10:30pm 10.9 9.4 8.5 85 1.2 S 6 7 3 4 1023.2 1023.2 0.0
28/10:00pm 11.5 11.1 8.2 80 1.6 CALM 0 0 0 0 1023.4 1023.4 0.0
28/09:30pm 12.5 12.2 8.6 77 1.9 CALM 0 0 0 0 1023.4 1023.4 0.0
28/09:00pm 12.9 11.3 8.0 72 2.4 S 6 7 3 4 1023.4 1023.4 0.0
28/08:30pm 13.8 12.3 8.4 70 2.7 SW 6 7 3 4 1023.5 1023.5 0.0
28/08:00pm 14.6 14.1 7.9 64 3.3 CALM 0 6 0 3 1023.4 1023.4 0.0
28/07:30pm 15.2 13.5 8.2 63 3.5 NNE 7 9 4 5 1023.4 1023.4 0.0
28/07:00pm 15.7 15.3 8.2 61 3.8 CALM 0 6 0 3 1023.3 1023.3 0.0
28/06:30pm 16.3 14.6 8.3 59 4.1 ENE 7 9 4 5 1022.9 1022.9 0.0
28/06:00pm 16.4 14.2 7.9 57 4.3 ENE 9 13 5 7 1022.5 1022.5 0.0
28/05:30pm 18.3 15.4 8.0 51 5.3 ENE 13 17 7 9 1022.2 1022.2 0.0
28/05:00pm 19.9 16.9 7.9 46 6.2 ENE 13 17 7 9 1021.9 1021.9 0.0
28/04:30pm 20.8 17.6 8.4 45 6.5 ENE 15 22 8 12 1021.8 1021.8 0.0
28/04:00pm 21.4 18.4 7.6 41 7.1 ENE 13 17 7 9 1021.5 1021.5 0.0
28/03:30pm 22.1 19.2 6.7 37 7.9 NE 11 15 6 8 1021.5 1021.5 0.0
28/03:00pm 21.8 18.2 6.9 38 7.6 NNE 15 20 8 11 1021.4 1021.4 0.0
28/02:30pm 22.0 19.5 6.7 37 7.8 ENE 9 17 5 9 1021.5 1021.5 0.0
28/02:00pm 22.2 20.2 7.2 38 7.7 E 7 19 4 10 1021.6 1021.6 0.0
28/01:30pm 21.5 19.8 5.8 36 7.9 W 4 9 2 5 1021.7 1021.7 0.0
28/01:00pm 21.3 19.1 5.2 35 7.9 NNW 6 9 3 5 1022.3 1022.3 0.0
28/12:30pm 20.4 17.6 5.2 37 7.5 S 9 17 5 9 1022.7 1022.7 0.0
28/12:00pm 19.9 17.0 4.4 36 7.4 WSW 9 15 5 8 1023.2 1023.2 0.0
28/11:30am 19.1 15.8 4.5 38 7.0 WSW 11 17 6 9 1023.7 1023.7 0.0
28/11:00am 18.8 15.6 5.3 41 6.5 WSW 11 17 6 9 1023.9 1023.9 0.0
28/10:30am 17.9 14.9 6.1 46 5.8 SW 11 17 6 9 1024.2 1024.2 0.0
28/10:00am 16.5 13.1 4.2 44 5.7 WSW 11 17 6 9 1024.5 1024.5 0.0
28/09:30am 15.6 11.9 4.6 48 5.1 SW 13 19 7 10 1024.6 1024.6 0.0
28/09:00am 14.5 10.9 4.8 52 4.5 W 13 17 7 9 1024.3 1024.3 0.0
28/08:30am 13.1 9.6 5.3 59 3.6 WSW 13 17 7 9 1024.3 1024.3 0.0
28/08:00am 11.4 8.6 5.1 65 2.9 SW 9 13 5 7 1024.0 1024.0 0.0
28/07:30am 9.0 6.1 4.8 75 1.9 SSW 9 11 5 6 1023.5 1023.5 0.0
28/07:00am 7.2 4.4 3.4 77 1.6 SSW 7 9 4 5 1023.1 1023.1 0.0
28/06:30am 7.2 4.1 3.4 77 1.6 SSW 9 11 5 6 1022.9 1022.9 0.0
28/06:00am 7.1 3.9 3.2 76 1.6 SSW 9 11 5 6 1022.6 1022.6 0.0
28/05:30am 6.9 3.7 3.2 77 1.6 SSW 9 11 5 6 1022.1 1022.1 0.0
28/05:00am 7.2 4.1 3.6 78 1.5 SSW 9 11 5 6 1021.9 1021.9 0.0
28/04:30am 7.4 4.2 3.3 75 1.7 S 9 9 5 5 1021.4 1021.4 0.0
28/04:00am 8.4 5.9 3.8 73 2.0 SW 6 11 3 6 1021.3 1021.3 0.0
28/03:30am 8.5 6.8 3.8 72 2.0 W 2 6 1 3 1021.5 1021.5 0.0
28/03:00am 7.5 5.5 2.4 70 2.1 WSW 2 6 1 3 1021.7 1021.7 0.0
28/02:30am 9.5 6.8 3.9 68 2.5 SW 7 9 4 5 1021.6 1021.6 0.0
28/02:00am 9.0 7.0 4.2 72 2.1 WSW 4 9 2 5 1021.7 1021.7 0.0
28/01:30am 7.2 4.7 4.0 80 1.4 SSW 6 9 3 5 1021.9 1021.9 0.0
28/01:00am 7.2 6.0 4.5 83 1.2 CALM 0 6 0 3 1022.0 1022.0 0.0
28/12:30am 8.0 5.1 4.6 79 1.5 SW 9 11 5 6 1021.7 1021.7 0.0
28/12:00am 9.7 6.7 4.1 68 2.5 S 9 11 5 6 1021.6 1021.6 0.0
 
Date/Time
EST
Temp
°C
App
Temp
°C
Dew
Point
°C
Rel
Hum
%
Delta-T
°C
Wind Press
QNH
hPa
Press
MSL
hPa
Rain since
9am
mm
Dir  Spd
km/h
Gust
km/h
Spd
kts
Gust
kts
27/11:30pm 11.0 8.1 4.7 65 2.8 S 9 11 5 6 1021.5 1021.5 0.0
27/11:00pm 9.9 8.4 5.1 72 2.2 SW 2 9 1 5 1021.3 1021.3 0.0
27/10:30pm 10.2 9.0 4.4 67 2.6 CALM 0 0 0 0 1021.2 1021.2 0.0
27/10:00pm 10.8 9.2 4.7 66 2.7 NNE 2 7 1 4 1021.3 1021.3 0.0
27/09:30pm 11.5 8.8 5.4 66 2.8 S 9 15 5 8 1021.0 1021.0 0.0
27/09:00pm 9.3 6.9 4.3 71 2.2 SSW 6 9 3 5 1020.7 1020.7 0.0
27/08:30pm 11.8 9.6 5.2 64 3.0 S 6 9 3 5 1020.3 1020.3 0.0
27/08:00pm 11.9 8.9 5.8 66 2.8 WSW 11 17 6 9 1019.7 1019.7 0.0
27/07:30pm 11.3 8.6 5.6 68 2.6 SW 9 13 5 7 1019.3 1019.3 0.0
27/07:00pm 14.2 12.0 5.3 55 4.2 SSW 6 7 3 4 1018.7 1018.7 0.0
27/06:30pm 14.5 13.0 5.0 53 4.4 W 2 9 1 5 1018.2 1018.2 0.0
27/06:00pm 15.4 14.1 3.9 46 5.3 CALM 0 0 0 0 1017.8 1017.8 0.0
27/05:30pm 16.0 13.5 3.8 44 5.6 WNW 6 11 3 6 1017.6 1017.6 0.0
27/05:00pm 17.8 13.6 4.0 40 6.5 WNW 15 22 8 12 1017.3 1017.3 0.0
27/04:30pm 18.5 13.6 4.3 39 6.8 WNW 19 28 10 15 1016.9 1016.9 0.0
27/04:00pm 18.4 13.4 4.6 40 6.6 W 20 32 11 17 1016.8 1016.8 0.0
27/03:30pm 18.1 13.0 3.9 39 6.7 W 20 32 11 17 1016.7 1016.7 0.0
27/03:00pm 18.5 13.9 3.6 37 7.0 WNW 17 26 9 14 1016.6 1016.6 0.0
27/02:30pm 18.5 13.4 3.9 38 6.9 NW 20 24 11 13 1016.7 1016.7 0.0
27/02:00pm 18.4 12.9 4.2 39 6.7 WNW 22 26 12 14 1016.8 1016.8 0.0
27/01:30pm 19.2 13.2 3.4 35 7.4 W 24 33 13 18 1017.2 1017.2 0.0
27/01:00pm 18.3 13.6 3.4 37 6.9 WNW 17 24 9 13 1017.1 1017.1 0.0
27/12:30pm 18.6 13.7 4.0 38 6.9 WNW 19 24 10 13 1017.6 1017.6 0.0
27/12:00pm 18.3 13.1 3.8 38 6.8 W 20 28 11 15 1017.9 1017.9 0.0
27/11:30am 17.1 12.0 4.1 42 6.1 WNW 20 28 11 15 1018.3 1018.3 0.0
27/11:00am 16.7 11.1 3.7 42 6.0 W 22 28 12 15 1018.7 1018.7 0.0
27/10:30am 16.8 11.8 4.8 45 5.7 W 20 28 11 15 1018.9 1018.9 0.0
27/10:00am 16.1 10.3 4.2 45 5.5 W 24 32 13 17 1019.0 1019.0 0.0
27/09:30am 16.1 11.2 3.9 44 5.7 W 19 26 10 14 1019.0 1019.0 0.0
27/09:00am 15.8 10.3 3.9 45 5.5 W 22 28 12 15 1019.2 1019.2 0.0
27/08:30am 15.7 11.2 4.1 46 5.4 W 17 24 9 13 1018.9 1018.9 0.0
27/08:00am 15.4 11.7 4.2 47 5.2 WSW 13 19 7 10 1018.8 1018.8 0.0
27/07:30am 15.3 11.1 3.8 46 5.3 W 15 19 8 10 1018.5 1018.5 0.0
27/07:00am 15.5 11.6 3.6 45 5.4 W 13 19 7 10 1018.6 1018.6 0.0
27/06:30am 14.7 11.8 4.4 50 4.8 SW 9 15 5 8 1018.5 1018.5 0.0
27/06:00am 14.8 11.1 4.2 49 4.9 WSW 13 19 7 10 1018.3 1018.3 0.0
27/05:30am 14.5 11.6 4.5 51 4.6 WSW 9 13 5 7 1017.6 1017.6 0.0
27/05:00am 14.8 11.9 4.8 51 4.7 WSW 9 15 5 8 1017.8 1017.8 0.0
27/04:30am 15.0 11.6 4.1 48 5.0 WSW 11 15 6 8 1017.7 1017.7 0.0
27/04:00am 14.9 11.9 4.3 49 4.9 W 9 13 5 7 1017.3 1017.3 0.0
27/03:30am 15.2 10.3 4.3 48 5.1 W 19 20 10 11 1017.2 1017.2 0.0
27/03:00am 15.8 11.2 3.6 44 5.6 WNW 17 24 9 13 1017.1 1017.1 0.0
27/02:30am 16.0 10.1 3.8 44 5.6 W 24 30 13 16 1017.4 1017.4 0.0
27/02:00am 16.0 11.4 3.8 44 5.6 WNW 17 22 9 12 1017.0 1017.0 0.0
27/01:30am 16.3 11.3 3.4 42 5.9 WNW 19 24 10 13 1017.2 1017.2 0.0
27/01:00am 16.7 10.3 3.1 40 6.2 WNW 26 37 14 20 1017.1 1017.1 0.0
27/12:30am 16.8 11.5 3.1 40 6.3 WNW 20 32 11 17 1017.1 1017.1 0.0
27/12:00am 16.6 12.7 3.3 41 6.1 NW 13 20 7 11 1017.2 1017.2 0.0
 
Date/Time
EST
Temp
°C
App
Temp
°C
Dew
Point
°C
Rel
Hum
%
Delta-T
°C
Wind Press
QNH
hPa
Press
MSL
hPa
Rain since
9am
mm
Dir  Spd
km/h
Gust
km/h
Spd
kts
Gust
kts
26/11:30pm 15.2 12.2 6.2 55 4.3 W 11 15 6 8 1017.3 1017.3 0.0
26/11:00pm 15.7 14.3 5.3 50 4.9 NE 2 7 1 4 1017.2 1017.2 0.0
26/10:30pm 15.9 13.1 5.2 49 5.1 NW 9 13 5 7 1017.6 1017.6 0.0
26/10:00pm 15.5 13.8 6.0 53 4.6 NW 4 9 2 5 1017.4 1017.4 0.0
26/09:30pm 14.6 12.8 7.2 61 3.6 N 6 7 3 4 1017.6 1017.6 0.0
26/09:00pm 14.7 13.7 7.5 62 3.5 N 2 7 1 4 1017.7 1017.7 0.0
26/08:30pm 15.1 13.3 7.2 59 3.9 N 6 7 3 4 1017.6 1017.6 0.0
26/08:00pm 15.0 14.2 6.6 57 4.1 CALM 0 0 0 0 1017.5 1017.5 0.0
26/07:30pm 15.0 13.0 6.3 56 4.2 N 6 7 3 4 1017.3 1017.3 0.0
26/07:00pm 15.3 13.5 7.1 58 4.0 NW 6 9 3 5 1017.0 1017.0 0.0
26/06:30pm 15.5 14.5 5.4 51 4.8 CALM 0 0 0 0 1016.4 1016.4 0.0
26/06:00pm 15.9 14.6 4.0 45 5.5 CALM 0 0 0 0 1016.2 1016.2 0.0
26/05:30pm 16.2 14.4 3.6 43 5.8 NNW 2 7 1 4 1016.0 1016.0 0.0
26/05:00pm 16.6 13.9 3.7 42 6.0 NNW 7 9 4 5 1016.2 1016.2 0.0
26/04:30pm 18.0 14.9 3.5 38 6.8 NNW 9 13 5 7 1016.3 1016.3 0.0
26/04:00pm 18.1 14.2 3.2 37 6.9 NNW 13 17 7 9 1016.3 1016.3 0.0
26/03:30pm 18.6 15.4 2.9 35 7.3 NW 9 15 5 8 1016.4 1016.4 0.0
26/03:00pm 18.3 14.3 2.6 35 7.2 WNW 13 17 7 9 1016.3 1016.3 0.0
26/02:30pm 18.3 13.8 2.2 34 7.3 WNW 15 20 8 11 1016.4 1016.4 0.0
26/02:00pm 18.4 13.5 1.9 33 7.5 NW 17 22 9 12 1016.8 1016.8 0.0
26/01:30pm 18.5 14.1 2.8 35 7.2 WNW 15 20 8 11 1017.2 1017.2 0.0
26/01:00pm 18.1 14.0 2.4 35 7.2 WNW 13 20 7 11 1017.2 1017.2 0.0
26/12:30pm 18.3 14.1 3.8 38 6.8 WNW 15 20 8 11 1018.0 1018.0 0.0
26/12:00pm 18.0 13.7 3.1 37 6.9 W 15 24 8 13 1018.2 1018.2 0.0
26/11:30am 17.8 13.0 2.5 36 7.0 W 17 22 9 12 1019.0 1019.0 0.0
26/11:00am 17.2 12.9 3.1 39 6.5 W 15 20 8 11 1019.4 1019.4 0.0
26/10:30am 16.6 11.9 3.3 41 6.1 W 17 22 9 12 1019.5 1019.5 0.0
26/10:00am 16.7 11.7 3.7 42 6.0 W 19 24 10 13 1019.6 1019.6 0.0
26/09:30am 15.9 10.8 4.0 45 5.5 W 20 26 11 14 1019.6 1019.6 0.0
26/09:00am 15.5 10.6 4.3 47 5.2 W 19 24 10 13 1019.6 1019.6 0.0
26/08:30am 14.6 10.4 4.0 49 4.9 W 15 20 8 11 1019.4 1019.4 0.0

Other Formats:

Comma delimited format used in spreadsheet applications
http://www.bom.gov.au/fwo/IDQ60801/IDQ60801.94575.axf

JavaScript Object Notation format (JSON) in row-major order
http://www.bom.gov.au/fwo/IDQ60801/IDQ60801.94575.json